Robert E. Mcallister — WDC8669 — position and weather

sailwx.info

Track history (hours):
 
Tides and Currents Weather Stations Pressure Air Temp Water Temp Dewpoint Dewpoint Depression Visibility Wind Speed Wind Dir Waves Ship Positions

Robert E. Mcallister

Owner: McAllister Towing & Transportation, Staten Island, NY. More information available from US FCC via Universal Licensing System and Coast Guard Vessel Documentation Center.

Last reported at 2014-Nov-27 20:32 UTC. Time now 2014-Nov-27 20:47 UTC.
Position N 40°38' W 074°10'.

Length 34 m; draft 4.3 m.

Type: Tug. MMSI: 367091120.

Date/timePositionNaut miles runAvg speedWind from/ knotsBaromVisibWave heightAir tempDewpointWater temp
2014-Nov-27 20:32N 40°38' W 074°10'7 3.4
2014-Nov-27 18:25N 40°32' W 074°15'6 5.4
2014-Nov-27 17:22N 40°38' W 074°12'2 2.4
2014-Nov-27 16:33N 40°38' W 074°10'0 0.0
2014-Nov-27 15:33N 40°38' W 074°10'0 0.0
2014-Nov-27 14:33N 40°38' W 074°10'0 0.0
2014-Nov-27 13:33N 40°38' W 074°10'0 0.0
2014-Nov-27 12:33N 40°38' W 074°10'0 0.0
2014-Nov-27 11:33N 40°38' W 074°10'0 0.0
2014-Nov-27 10:33N 40°38' W 074°10'0 0.0
2014-Nov-27 09:33N 40°38' W 074°10'0 0.0
2014-Nov-27 08:33N 40°38' W 074°10'0 0.0
2014-Nov-27 07:33N 40°38' W 074°10'5 4.6
2014-Nov-27 06:33N 40°40' W 074°04'0 0.1
2014-Nov-27 05:33N 40°40' W 074°04'0 0.3
2014-Nov-27 04:33N 40°40' W 074°04'0 0.0
2014-Nov-27 03:33N 40°40' W 074°04'0 0.0
2014-Nov-27 02:33N 40°40' W 074°04'0 0.0
2014-Nov-27 01:33N 40°40' W 074°04'0 0.0
2014-Nov-27 00:33N 40°40' W 074°04'0 0.0
2014-Nov-26 23:33N 40°40' W 074°04'1 0.6
2014-Nov-26 22:33N 40°40' W 074°05'1 0.9
2014-Nov-26 21:33N 40°40' W 074°04'5 4.6
2014-Nov-26 20:33N 40°38' W 074°10'0 0.0
2014-Nov-26 19:33N 40°38' W 074°10'0 0.0
2014-Nov-26 18:33N 40°38' W 074°10'0 0.0
2014-Nov-26 17:33N 40°38' W 074°10'1 1.4
2014-Nov-26 16:33N 40°40' W 074°09'1 1.0
2014-Nov-26 15:29N 40°39' W 074°09'1 0.7
2014-Nov-26 14:33N 40°38' W 074°10'0 0.0
2014-Nov-26 13:33N 40°38' W 074°10'1 1.0
2014-Nov-26 12:33N 40°39' W 074°09'1 0.9
2014-Nov-26 11:31N 40°39' W 074°08'2 1.6
2014-Nov-26 10:33N 40°38' W 074°10'0 0.0
2014-Nov-26 09:33N 40°38' W 074°10'3 3.3
2014-Nov-26 08:33N 40°39' W 074°06'1 1.4
2014-Nov-26 07:33N 40°40' W 074°04'3 2.8
2014-Nov-26 06:33N 40°39' W 074°07'3 2.8
2014-Nov-26 05:28N 40°38' W 074°12'6 0.7
2014-Nov-25 20:12N 40°33' W 074°15'3 1.2
2014-Nov-25 17:30N 40°35' W 074°12'2 2.5
2014-Nov-25 16:31N 40°38' W 074°12'2 1.9
2014-Nov-25 15:33N 40°38' W 074°10'0 0.0
2014-Nov-25 14:33N 40°38' W 074°10'0 0.0
2014-Nov-25 13:33N 40°38' W 074°10'2 1.9
2014-Nov-25 12:33N 40°40' W 074°09'2 1.7
2014-Nov-25 11:33N 40°39' W 074°07'3 3.4
2014-Nov-25 10:33N 40°38' W 074°03'5 5.2
2014-Nov-25 09:33N 40°38' W 074°10'2 2.5
2014-Nov-25 08:33N 40°41' W 074°09'0 0.2
2014-Nov-25 07:32N 40°41' W 074°09'2 2.4
2014-Nov-25 06:33N 40°39' W 074°07'3 2.6
2014-Nov-25 05:33N 40°40' W 074°05'4 4.2
2014-Nov-25 04:33N 40°38' W 074°10'0 0.0
2014-Nov-25 03:33N 40°38' W 074°10'1 0.8
2014-Nov-25 02:33N 40°39' W 074°09'2 2.1
2014-Nov-25 01:31N 40°41' W 074°08'0 0.1
2014-Nov-25 00:33N 40°41' W 074°09'2 2.4
2014-Nov-24 23:33N 40°39' W 074°08'3 3.0
2014-Nov-24 22:33N 40°42' W 074°08'0 0.3
2014-Nov-24 21:33N 40°42' W 074°09'1 1.3
2014-Nov-24 20:33N 40°40' W 074°08'0 0.0
2014-Nov-24 19:33N 40°40' W 074°08'0 0.0
2014-Nov-24 18:33N 40°40' W 074°08'0 0.0
2014-Nov-24 17:33N 40°40' W 074°08'0 0.0
2014-Nov-24 16:33N 40°40' W 074°08'2 1.5
2014-Nov-24 15:29N 40°39' W 074°09'1 0.9
2014-Nov-24 14:33N 40°38' W 074°10'1 0.4
2014-Nov-24 11:33N 40°39' W 074°09'0 0.2
2014-Nov-24 10:32N 40°40' W 074°09'5 4.9
2014-Nov-24 09:33N 40°38' W 074°03'5 5.3
2014-Nov-24 08:33N 40°38' W 074°10'5 4.7
2014-Nov-24 07:33N 40°38' W 074°04'3 3.3
2014-Nov-24 06:31N 40°39' W 074°08'4 3.6
2014-Nov-24 05:27N 40°36' W 074°12'0 0.1
2014-Nov-24 04:33N 40°36' W 074°12'3 3.0
2014-Nov-24 03:33N 40°38' W 074°10'0 0.0
2014-Nov-24 02:33N 40°38' W 074°10'0 0.0
2014-Nov-24 01:33N 40°38' W 074°10'1 0.6
2014-Nov-24 00:33N 40°39' W 074°09'2 2.1
2014-Nov-23 23:31N 40°41' W 074°08'5 5.1
2014-Nov-23 22:33N 40°38' W 074°03'2 2.4
2014-Nov-23 21:33N 40°40' W 074°03'4 4.1
2014-Nov-23 20:33N 40°42' W 073°58'8 8.0
2014-Nov-23 19:33N 40°39' W 074°08'2 1.7
2014-Nov-23 18:33N 40°38' W 074°10'0 0.0
2014-Nov-23 17:21N 40°38' W 074°10'2 2.8
2014-Nov-23 16:33N 40°40' W 074°08'2 2.0
2014-Nov-23 15:33N 40°38' W 074°09'2 1.8
2014-Nov-23 14:32N 40°38' W 074°12'6 4.1
2014-Nov-23 13:10N 40°33' W 074°15'2 1.1
2014-Nov-23 11:32N 40°31' W 074°15'0 0.0
2014-Nov-23 09:33N 40°31' W 074°15'7 3.7
2014-Nov-23 07:33N 40°38' W 074°12'6 6.4
2014-Nov-23 06:33N 40°38' W 074°03'5 4.9
2014-Nov-23 05:33N 40°38' W 074°10'0 0.0
2014-Nov-23 04:33N 40°38' W 074°10'0 0.0
2014-Nov-23 03:33N 40°38' W 074°10'0 0.0
2014-Nov-23 02:33N 40°38' W 074°10'0 0.0
2014-Nov-23 01:32N 40°38' W 074°10'0 0.0
2014-Nov-23 00:33N 40°38' W 074°10'1 0.6
2014-Nov-22 23:29N 40°39' W 074°09'5 5.1
2014-Nov-22 22:33N 40°38' W 074°03'5 5.3
2014-Nov-22 21:33N 40°38' W 074°10'0 0.0
2014-Nov-22 20:33N 40°38' W 074°10'0 0.0
2014-Nov-22 19:33N 40°38' W 074°10'0 0.0
2014-Nov-22 18:33N 40°38' W 074°10'0 0.0
2014-Nov-22 17:33N 40°38' W 074°10'0 0.0
2014-Nov-22 16:33N 40°38' W 074°10'5 2.1
2014-Nov-22 14:22N 40°34' W 074°13'5 5.6
2014-Nov-22 13:33N 40°38' W 074°10'0 0.0
2014-Nov-22 12:33N 40°38' W 074°10'1 1.4
2014-Nov-22 11:33N 40°40' W 074°09'1 1.4
2014-Nov-22 10:33N 40°38' W 074°10'2 1.7
2014-Nov-22 09:33N 40°38' W 074°12'1 0.5
2014-Nov-22 08:32N 40°38' W 074°12'2 2.0
2014-Nov-22 07:33N 40°39' W 074°10'0 0.2
2014-Nov-22 06:33N 40°38' W 074°10'4 3.6
2014-Nov-22 05:33N 40°39' W 074°05'3 2.5
2014-Nov-22 04:13N 40°42' W 074°08'1 1.5
2014-Nov-22 03:33N 40°41' W 074°08'3 2.3
2014-Nov-22 02:28N 40°38' W 074°10'0 0.0
2014-Nov-22 01:33N 40°38' W 074°10'5 4.8
2014-Nov-22 00:32N 40°40' W 074°04'1 0.9
2014-Nov-21 23:33N 40°40' W 074°05'4 4.3
2014-Nov-21 22:33N 40°38' W 074°10'5 5.4
2014-Nov-21 21:33N 40°37' W 074°03'5 5.4
2014-Nov-21 20:33N 40°38' W 074°10'0 0.0
2014-Nov-21 19:33N 40°38' W 074°10'0 0.0
2014-Nov-21 18:33N 40°38' W 074°10'2 2.4
2014-Nov-21 17:33N 40°41' W 074°09'2 2.2
2014-Nov-21 16:33N 40°39' W 074°09'5 4.6
2014-Nov-21 15:33N 40°37' W 074°03'3 3.5
2014-Nov-21 14:33N 40°39' W 074°07'2 1.9
2014-Nov-21 13:30N 40°38' W 074°10'2 2.0
2014-Nov-21 12:32N 40°38' W 074°12'3 2.4
2014-Nov-21 11:24N 40°39' W 074°09'5 5.5
2014-Nov-21 10:33N 40°38' W 074°03'5 5.4
2014-Nov-21 09:33N 40°38' W 074°10'0 0.0
2014-Nov-21 08:33N 40°38' W 074°10'0 0.0
2014-Nov-21 07:34N 40°38' W 074°10'0 0.0
2014-Nov-21 06:33N 40°38' W 074°10'0 0.0
2014-Nov-21 05:33N 40°38' W 074°10'0 0.0
2014-Nov-21 04:33N 40°38' W 074°10'0 0.0
2014-Nov-21 03:33N 40°38' W 074°10'0 0.0
2014-Nov-21 02:33N 40°38' W 074°10'0 0.0
2014-Nov-21 01:33N 40°38' W 074°10'2 1.6
2014-Nov-21 00:33N 40°38' W 074°12'5 5.1
2014-Nov-20 23:33N 40°39' W 074°05'1 1.3
2014-Nov-20 22:33N 40°39' W 074°04'5 4.7
2014-Nov-20 21:33N 40°38' W 074°10'0 0.0
2014-Nov-20 20:33N 40°38' W 074°10'0 0.0
2014-Nov-20 19:33N 40°38' W 074°10'2 1.7
2014-Nov-20 18:33N 40°39' W 074°08'1 0.8
2014-Nov-20 17:33N 40°39' W 074°07'0 0.0
2014-Nov-20 16:32N 40°39' W 074°07'0 0.0
2014-Nov-20 15:33N 40°39' W 074°07'2 2.5
2014-Nov-20 14:33N 40°38' W 074°10'0 0.0
2014-Nov-20 13:33N 40°38' W 074°10'1 0.6
2014-Nov-20 12:33N 40°39' W 074°09'1 1.5
2014-Nov-20 11:33N 40°40' W 074°08'3 3.3
2014-Nov-20 10:32N 40°40' W 074°04'1 0.9
2014-Nov-20 09:33N 40°40' W 074°05'1 0.6
2014-Nov-20 08:33N 40°40' W 074°04'0 0.0
2014-Nov-20 07:33N 40°40' W 074°04'0 0.0
2014-Nov-20 06:33N 40°40' W 074°04'2 1.6
2014-Nov-20 05:33N 40°41' W 074°02'5 5.5
2014-Nov-20 04:33N 40°46' W 073°60'4 4.1
2014-Nov-20 03:33N 40°42' W 074°02'7 7.0
2014-Nov-20 02:32N 40°38' W 074°10'0 0.0
2014-Nov-20 01:28N 40°38' W 074°10'1 0.8
2014-Nov-20 00:33N 40°39' W 074°09'1 1.2
2014-Nov-19 23:33N 40°40' W 074°09'1 1.0
2014-Nov-19 22:32N 40°39' W 074°09'1 0.7
2014-Nov-19 21:33N 40°38' W 074°10'0 0.0
2014-Nov-19 20:33N 40°38' W 074°10'0 0.0
2014-Nov-19 19:33N 40°38' W 074°10'0 0.0
2014-Nov-19 18:33N 40°38' W 074°10'0 0.0
2014-Nov-19 17:33N 40°38' W 074°10'0 0.0
2014-Nov-19 16:33N 40°38' W 074°10'0 0.0
2014-Nov-19 15:32N 40°38' W 074°10'0 0.0
2014-Nov-19 14:33N 40°38' W 074°10'0 0.0
2014-Nov-19 13:33N 40°38' W 074°10'4 3.9
2014-Nov-19 12:33N 40°39' W 074°05'1 0.9
2014-Nov-19 11:33N 40°40' W 074°04'2 2.3
2014-Nov-19 10:33N 40°38' W 074°03'3 2.7
2014-Nov-19 09:33N 40°40' W 074°05'4 4.3
2014-Nov-19 08:33N 40°38' W 074°10'0 0.0
2014-Nov-19 07:33N 40°38' W 074°10'0 0.0
2014-Nov-19 06:33N 40°38' W 074°10'0 0.0
2014-Nov-19 05:33N 40°38' W 074°10'1 1.2
2014-Nov-19 04:28N 40°40' W 074°09'1 1.4
2014-Nov-19 03:33N 40°39' W 074°08'1 1.3
2014-Nov-19 02:33N 40°40' W 074°09'0 0.2
2014-Nov-19 01:33N 40°40' W 074°09'1 0.8
2014-Nov-19 00:32N 40°39' W 074°09'1 0.6
2014-Nov-18 23:33N 40°38' W 074°10'3 3.1
2014-Nov-18 22:33N 40°39' W 074°06'0 0.1
2014-Nov-18 21:33N 40°39' W 074°06'4 4.2
2014-Nov-18 20:32N 40°38' W 074°11'0 0.1
2014-Nov-18 19:30N 40°38' W 074°11'1 1.2
2014-Nov-18 18:33N 40°38' W 074°10'1 0.8
2014-Nov-18 17:33N 40°39' W 074°09'2 1.9
2014-Nov-18 16:33N 40°41' W 074°09'2 2.3
2014-Nov-18 15:33N 40°39' W 074°08'3 3.3
2014-Nov-18 14:33N 40°38' W 074°04'0 0.1
2014-Nov-18 13:33N 40°38' W 074°04'4 4.0
2014-Nov-18 12:33N 40°40' W 074°08'1 1.0
2014-Nov-18 11:33N 40°40' W 074°09'5 4.6
2014-Nov-18 10:33N 40°38' W 074°03'1 0.9
2014-Nov-18 09:34N 40°38' W 074°04'0 0.0
2014-Nov-18 08:34N 40°38' W 074°04'0 0.0
2014-Nov-18 07:33N 40°38' W 074°04'4 3.9
2014-Nov-18 06:33N 40°40' W 074°09'1 0.7
2014-Nov-18 05:33N 40°40' W 074°08'2 2.2
2014-Nov-18 04:33N 40°38' W 074°10'0 0.0
2014-Nov-18 03:33N 40°38' W 074°10'0 0.0
2014-Nov-18 02:33N 40°38' W 074°10'0 0.0
2014-Nov-18 01:33N 40°38' W 074°10'0 0.0
2014-Nov-18 00:33N 40°38' W 074°10'0 0.0
2014-Nov-17 23:33N 40°38' W 074°10'2 1.7
2014-Nov-17 22:33N 40°40' W 074°09'4 4.4
2014-Nov-17 21:34N 40°38' W 074°03'2 2.3
2014-Nov-17 20:34N 40°39' W 074°06'  
Track history (hours):
 
Tides and Currents Weather Stations Pressure Air Temp Water Temp Dewpoint Dewpoint Depression Visibility Wind Speed Wind Dir Waves Ship Positions

Robert E. Mcallister

Owner: McAllister Towing & Transportation, Staten Island, NY. More information available from US FCC via Universal Licensing System and Coast Guard Vessel Documentation Center.

Last reported at 2014-Nov-27 20:32 UTC. Time now 2014-Nov-27 20:47 UTC.
Position N 40°38' W 074°10'.

Length 34 m; draft 4.3 m.

Type: Tug. MMSI: 367091120.

Date/timePositionNaut miles runAvg speedWind from/ knotsBaromVisibWave heightAir tempDewpointWater temp
2014-Nov-27 20:32N 40°38' W 074°10'7 3.4
2014-Nov-27 18:25N 40°32' W 074°15'6 5.4
2014-Nov-27 17:22N 40°38' W 074°12'2 2.4
2014-Nov-27 16:33N 40°38' W 074°10'0 0.0
2014-Nov-27 15:33N 40°38' W 074°10'0 0.0
2014-Nov-27 14:33N 40°38' W 074°10'0 0.0
2014-Nov-27 13:33N 40°38' W 074°10'0 0.0
2014-Nov-27 12:33N 40°38' W 074°10'0 0.0
2014-Nov-27 11:33N 40°38' W 074°10'0 0.0
2014-Nov-27 10:33N 40°38' W 074°10'0 0.0
2014-Nov-27 09:33N 40°38' W 074°10'0 0.0
2014-Nov-27 08:33N 40°38' W 074°10'0 0.0
2014-Nov-27 07:33N 40°38' W 074°10'5 4.6
2014-Nov-27 06:33N 40°40' W 074°04'0 0.1
2014-Nov-27 05:33N 40°40' W 074°04'0 0.3
2014-Nov-27 04:33N 40°40' W 074°04'0 0.0
2014-Nov-27 03:33N 40°40' W 074°04'0 0.0
2014-Nov-27 02:33N 40°40' W 074°04'0 0.0
2014-Nov-27 01:33N 40°40' W 074°04'0 0.0
2014-Nov-27 00:33N 40°40' W 074°04'0 0.0
2014-Nov-26 23:33N 40°40' W 074°04'1 0.6
2014-Nov-26 22:33N 40°40' W 074°05'1 0.9
2014-Nov-26 21:33N 40°40' W 074°04'5 4.6
2014-Nov-26 20:33N 40°38' W 074°10'0 0.0
2014-Nov-26 19:33N 40°38' W 074°10'0 0.0
2014-Nov-26 18:33N 40°38' W 074°10'0 0.0
2014-Nov-26 17:33N 40°38' W 074°10'1 1.4
2014-Nov-26 16:33N 40°40' W 074°09'1 1.0
2014-Nov-26 15:29N 40°39' W 074°09'1 0.7
2014-Nov-26 14:33N 40°38' W 074°10'0 0.0
2014-Nov-26 13:33N 40°38' W 074°10'1 1.0
2014-Nov-26 12:33N 40°39' W 074°09'1 0.9
2014-Nov-26 11:31N 40°39' W 074°08'2 1.6
2014-Nov-26 10:33N 40°38' W 074°10'0 0.0
2014-Nov-26 09:33N 40°38' W 074°10'3 3.3
2014-Nov-26 08:33N 40°39' W 074°06'1 1.4
2014-Nov-26 07:33N 40°40' W 074°04'3 2.8
2014-Nov-26 06:33N 40°39' W 074°07'3 2.8
2014-Nov-26 05:28N 40°38' W 074°12'6 0.7
2014-Nov-25 20:12N 40°33' W 074°15'3 1.2
2014-Nov-25 17:30N 40°35' W 074°12'2 2.5
2014-Nov-25 16:31N 40°38' W 074°12'2 1.9
2014-Nov-25 15:33N 40°38' W 074°10'0 0.0
2014-Nov-25 14:33N 40°38' W 074°10'0 0.0
2014-Nov-25 13:33N 40°38' W 074°10'2 1.9
2014-Nov-25 12:33N 40°40' W 074°09'2 1.7
2014-Nov-25 11:33N 40°39' W 074°07'3 3.4
2014-Nov-25 10:33N 40°38' W 074°03'5 5.2
2014-Nov-25 09:33N 40°38' W 074°10'2 2.5
2014-Nov-25 08:33N 40°41' W 074°09'0 0.2
2014-Nov-25 07:32N 40°41' W 074°09'2 2.4
2014-Nov-25 06:33N 40°39' W 074°07'3 2.6
2014-Nov-25 05:33N 40°40' W 074°05'4 4.2
2014-Nov-25 04:33N 40°38' W 074°10'0 0.0
2014-Nov-25 03:33N 40°38' W 074°10'1 0.8
2014-Nov-25 02:33N 40°39' W 074°09'2 2.1
2014-Nov-25 01:31N 40°41' W 074°08'0 0.1
2014-Nov-25 00:33N 40°41' W 074°09'2 2.4
2014-Nov-24 23:33N 40°39' W 074°08'3 3.0
2014-Nov-24 22:33N 40°42' W 074°08'0 0.3
2014-Nov-24 21:33N 40°42' W 074°09'1 1.3
2014-Nov-24 20:33N 40°40' W 074°08'0 0.0
2014-Nov-24 19:33N 40°40' W 074°08'0 0.0
2014-Nov-24 18:33N 40°40' W 074°08'0 0.0
2014-Nov-24 17:33N 40°40' W 074°08'0 0.0
2014-Nov-24 16:33N 40°40' W 074°08'2 1.5
2014-Nov-24 15:29N 40°39' W 074°09'1 0.9
2014-Nov-24 14:33N 40°38' W 074°10'1 0.4
2014-Nov-24 11:33N 40°39' W 074°09'0 0.2
2014-Nov-24 10:32N 40°40' W 074°09'5 4.9
2014-Nov-24 09:33N 40°38' W 074°03'5 5.3
2014-Nov-24 08:33N 40°38' W 074°10'5 4.7
2014-Nov-24 07:33N 40°38' W 074°04'3 3.3
2014-Nov-24 06:31N 40°39' W 074°08'4 3.6
2014-Nov-24 05:27N 40°36' W 074°12'0 0.1
2014-Nov-24 04:33N 40°36' W 074°12'3 3.0
2014-Nov-24 03:33N 40°38' W 074°10'0 0.0
2014-Nov-24 02:33N 40°38' W 074°10'0 0.0
2014-Nov-24 01:33N 40°38' W 074°10'1 0.6
2014-Nov-24 00:33N 40°39' W 074°09'2 2.1
2014-Nov-23 23:31N 40°41' W 074°08'5 5.1
2014-Nov-23 22:33N 40°38' W 074°03'2 2.4
2014-Nov-23 21:33N 40°40' W 074°03'4 4.1
2014-Nov-23 20:33N 40°42' W 073°58'8 8.0
2014-Nov-23 19:33N 40°39' W 074°08'2 1.7
2014-Nov-23 18:33N 40°38' W 074°10'0 0.0
2014-Nov-23 17:21N 40°38' W 074°10'2 2.8
2014-Nov-23 16:33N 40°40' W 074°08'2 2.0
2014-Nov-23 15:33N 40°38' W 074°09'2 1.8
2014-Nov-23 14:32N 40°38' W 074°12'6 4.1
2014-Nov-23 13:10N 40°33' W 074°15'2 1.1
2014-Nov-23 11:32N 40°31' W 074°15'0 0.0
2014-Nov-23 09:33N 40°31' W 074°15'7 3.7
2014-Nov-23 07:33N 40°38' W 074°12'6 6.4
2014-Nov-23 06:33N 40°38' W 074°03'5 4.9
2014-Nov-23 05:33N 40°38' W 074°10'0 0.0
2014-Nov-23 04:33N 40°38' W 074°10'0 0.0
2014-Nov-23 03:33N 40°38' W 074°10'0 0.0
2014-Nov-23 02:33N 40°38' W 074°10'0 0.0
2014-Nov-23 01:32N 40°38' W 074°10'0 0.0
2014-Nov-23 00:33N 40°38' W 074°10'1 0.6
2014-Nov-22 23:29N 40°39' W 074°09'5 5.1
2014-Nov-22 22:33N 40°38' W 074°03'5 5.3
2014-Nov-22 21:33N 40°38' W 074°10'0 0.0
2014-Nov-22 20:33N 40°38' W 074°10'0 0.0
2014-Nov-22 19:33N 40°38' W 074°10'0 0.0
2014-Nov-22 18:33N 40°38' W 074°10'0 0.0
2014-Nov-22 17:33N 40°38' W 074°10'0 0.0
2014-Nov-22 16:33N 40°38' W 074°10'5 2.1
2014-Nov-22 14:22N 40°34' W 074°13'5 5.6
2014-Nov-22 13:33N 40°38' W 074°10'0 0.0
2014-Nov-22 12:33N 40°38' W 074°10'1 1.4
2014-Nov-22 11:33N 40°40' W 074°09'1 1.4
2014-Nov-22 10:33N 40°38' W 074°10'2 1.7
2014-Nov-22 09:33N 40°38' W 074°12'1 0.5
2014-Nov-22 08:32N 40°38' W 074°12'2 2.0
2014-Nov-22 07:33N 40°39' W 074°10'0 0.2
2014-Nov-22 06:33N 40°38' W 074°10'4 3.6
2014-Nov-22 05:33N 40°39' W 074°05'3 2.5
2014-Nov-22 04:13N 40°42' W 074°08'1 1.5
2014-Nov-22 03:33N 40°41' W 074°08'3 2.3
2014-Nov-22 02:28N 40°38' W 074°10'0 0.0
2014-Nov-22 01:33N 40°38' W 074°10'5 4.8
2014-Nov-22 00:32N 40°40' W 074°04'1 0.9
2014-Nov-21 23:33N 40°40' W 074°05'4 4.3
2014-Nov-21 22:33N 40°38' W 074°10'5 5.4
2014-Nov-21 21:33N 40°37' W 074°03'5 5.4
2014-Nov-21 20:33N 40°38' W 074°10'0 0.0
2014-Nov-21 19:33N 40°38' W 074°10'0 0.0
2014-Nov-21 18:33N 40°38' W 074°10'2 2.4
2014-Nov-21 17:33N 40°41' W 074°09'2 2.2
2014-Nov-21 16:33N 40°39' W 074°09'5 4.6
2014-Nov-21 15:33N 40°37' W 074°03'3 3.5
2014-Nov-21 14:33N 40°39' W 074°07'2 1.9
2014-Nov-21 13:30N 40°38' W 074°10'2 2.0
2014-Nov-21 12:32N 40°38' W 074°12'3 2.4
2014-Nov-21 11:24N 40°39' W 074°09'5 5.5
2014-Nov-21 10:33N 40°38' W 074°03'5 5.4
2014-Nov-21 09:33N 40°38' W 074°10'0 0.0
2014-Nov-21 08:33N 40°38' W 074°10'0 0.0
2014-Nov-21 07:34N 40°38' W 074°10'0 0.0
2014-Nov-21 06:33N 40°38' W 074°10'0 0.0
2014-Nov-21 05:33N 40°38' W 074°10'0 0.0
2014-Nov-21 04:33N 40°38' W 074°10'0 0.0
2014-Nov-21 03:33N 40°38' W 074°10'0 0.0
2014-Nov-21 02:33N 40°38' W 074°10'0 0.0
2014-Nov-21 01:33N 40°38' W 074°10'2 1.6
2014-Nov-21 00:33N 40°38' W 074°12'5 5.1
2014-Nov-20 23:33N 40°39' W 074°05'1 1.3
2014-Nov-20 22:33N 40°39' W 074°04'5 4.7
2014-Nov-20 21:33N 40°38' W 074°10'0 0.0
2014-Nov-20 20:33N 40°38' W 074°10'0 0.0
2014-Nov-20 19:33N 40°38' W 074°10'2 1.7
2014-Nov-20 18:33N 40°39' W 074°08'1 0.8
2014-Nov-20 17:33N 40°39' W 074°07'0 0.0
2014-Nov-20 16:32N 40°39' W 074°07'0 0.0
2014-Nov-20 15:33N 40°39' W 074°07'2 2.5
2014-Nov-20 14:33N 40°38' W 074°10'0 0.0
2014-Nov-20 13:33N 40°38' W 074°10'1 0.6
2014-Nov-20 12:33N 40°39' W 074°09'1 1.5
2014-Nov-20 11:33N 40°40' W 074°08'3 3.3
2014-Nov-20 10:32N 40°40' W 074°04'1 0.9
2014-Nov-20 09:33N 40°40' W 074°05'1 0.6
2014-Nov-20 08:33N 40°40' W 074°04'0 0.0
2014-Nov-20 07:33N 40°40' W 074°04'0 0.0
2014-Nov-20 06:33N 40°40' W 074°04'2 1.6
2014-Nov-20 05:33N 40°41' W 074°02'5 5.5
2014-Nov-20 04:33N 40°46' W 073°60'4 4.1
2014-Nov-20 03:33N 40°42' W 074°02'7 7.0
2014-Nov-20 02:32N 40°38' W 074°10'0 0.0
2014-Nov-20 01:28N 40°38' W 074°10'1 0.8
2014-Nov-20 00:33N 40°39' W 074°09'1 1.2
2014-Nov-19 23:33N 40°40' W 074°09'1 1.0
2014-Nov-19 22:32N 40°39' W 074°09'1 0.7
2014-Nov-19 21:33N 40°38' W 074°10'0 0.0
2014-Nov-19 20:33N 40°38' W 074°10'0 0.0
2014-Nov-19 19:33N 40°38' W 074°10'0 0.0
2014-Nov-19 18:33N 40°38' W 074°10'0 0.0
2014-Nov-19 17:33N 40°38' W 074°10'0 0.0
2014-Nov-19 16:33N 40°38' W 074°10'0 0.0
2014-Nov-19 15:32N 40°38' W 074°10'0 0.0
2014-Nov-19 14:33N 40°38' W 074°10'0 0.0
2014-Nov-19 13:33N 40°38' W 074°10'4 3.9
2014-Nov-19 12:33N 40°39' W 074°05'1 0.9
2014-Nov-19 11:33N 40°40' W 074°04'2 2.3
2014-Nov-19 10:33N 40°38' W 074°03'3 2.7
2014-Nov-19 09:33N 40°40' W 074°05'4 4.3
2014-Nov-19 08:33N 40°38' W 074°10'0 0.0
2014-Nov-19 07:33N 40°38' W 074°10'0 0.0
2014-Nov-19 06:33N 40°38' W 074°10'0 0.0
2014-Nov-19 05:33N 40°38' W 074°10'1 1.2
2014-Nov-19 04:28N 40°40' W 074°09'1 1.4
2014-Nov-19 03:33N 40°39' W 074°08'1 1.3
2014-Nov-19 02:33N 40°40' W 074°09'0 0.2
2014-Nov-19 01:33N 40°40' W 074°09'1 0.8
2014-Nov-19 00:32N 40°39' W 074°09'1 0.6
2014-Nov-18 23:33N 40°38' W 074°10'3 3.1
2014-Nov-18 22:33N 40°39' W 074°06'0 0.1
2014-Nov-18 21:33N 40°39' W 074°06'4 4.2
2014-Nov-18 20:32N 40°38' W 074°11'0 0.1
2014-Nov-18 19:30N 40°38' W 074°11'1 1.2
2014-Nov-18 18:33N 40°38' W 074°10'1 0.8
2014-Nov-18 17:33N 40°39' W 074°09'2 1.9
2014-Nov-18 16:33N 40°41' W 074°09'2 2.3
2014-Nov-18 15:33N 40°39' W 074°08'3 3.3
2014-Nov-18 14:33N 40°38' W 074°04'0 0.1
2014-Nov-18 13:33N 40°38' W 074°04'4 4.0
2014-Nov-18 12:33N 40°40' W 074°08'1 1.0
2014-Nov-18 11:33N 40°40' W 074°09'5 4.6
2014-Nov-18 10:33N 40°38' W 074°03'1 0.9
2014-Nov-18 09:34N 40°38' W 074°04'0 0.0
2014-Nov-18 08:34N 40°38' W 074°04'0 0.0
2014-Nov-18 07:33N 40°38' W 074°04'4 3.9
2014-Nov-18 06:33N 40°40' W 074°09'1 0.7
2014-Nov-18 05:33N 40°40' W 074°08'2 2.2
2014-Nov-18 04:33N 40°38' W 074°10'0 0.0
2014-Nov-18 03:33N 40°38' W 074°10'0 0.0
2014-Nov-18 02:33N 40°38' W 074°10'0 0.0
2014-Nov-18 01:33N 40°38' W 074°10'0 0.0
2014-Nov-18 00:33N 40°38' W 074°10'0 0.0
2014-Nov-17 23:33N 40°38' W 074°10'2 1.7
2014-Nov-17 22:33N 40°40' W 074°09'4 4.4
2014-Nov-17 21:34N 40°38' W 074°03'2 2.3
2014-Nov-17 20:34N 40°39' W 074°06'  

Dump ship's entire track history